createdAt,value
2018-03-07T00:01:29.162Z,44
2018-03-07T00:11:27.941Z,46
2018-03-07T00:21:27.794Z,45
2018-03-07T00:31:28.386Z,46
2018-03-07T00:41:28.483Z,45
2018-03-07T00:51:28.002Z,45
2018-03-07T01:01:29.860Z,44
2018-03-07T01:11:27.548Z,44
2018-03-07T01:21:28.329Z,46
2018-03-07T01:31:27.910Z,46
2018-03-07T01:41:27.919Z,46
2018-03-07T01:51:27.951Z,46
2018-03-07T02:01:27.819Z,46
2018-03-07T02:11:28.649Z,46
2018-03-07T02:21:28.437Z,45
2018-03-07T02:31:27.970Z,46
2018-03-07T02:41:27.505Z,46
2018-03-07T02:51:28.050Z,46
2018-03-07T03:01:27.998Z,46
2018-03-07T03:11:28.665Z,45
2018-03-07T03:21:28.644Z,46
2018-03-07T03:31:28.134Z,45
2018-03-07T03:41:28.276Z,45
2018-03-07T03:51:28.120Z,45
2018-03-07T04:01:27.900Z,46
2018-03-07T04:11:28.776Z,46
2018-03-07T04:21:27.689Z,47
2018-03-07T04:31:28.292Z,46
2018-03-07T04:41:27.910Z,46
2018-03-07T04:51:28.388Z,47
2018-03-07T05:01:28.183Z,46
2018-03-07T05:11:28.776Z,45
2018-03-07T05:21:27.525Z,46
2018-03-07T05:31:27.960Z,47
2018-03-07T05:41:30.443Z,45
2018-03-07T05:51:28.506Z,46
2018-03-07T06:01:29.155Z,45
2018-03-07T06:11:27.691Z,45
2018-03-07T06:21:27.483Z,47
2018-03-07T06:31:28.493Z,46
2018-03-07T06:41:33.839Z,47
2018-03-07T06:51:28.877Z,46
2018-03-07T07:01:29.613Z,45
2018-03-07T07:11:28.052Z,46
2018-03-07T07:21:29.344Z,45
2018-03-07T07:31:29.938Z,44
2018-03-07T07:41:27.546Z,45
2018-03-07T07:51:28.416Z,48
2018-03-07T08:01:28.128Z,46
2018-03-07T08:11:28.162Z,46
2018-03-07T08:21:29.159Z,44
2018-03-07T08:31:27.764Z,45
2018-03-07T08:41:29.146Z,45
2018-03-07T08:51:29.386Z,44
2018-03-07T09:01:28.651Z,45
2018-03-07T09:11:28.895Z,46
2018-03-07T09:21:29.406Z,43
2018-03-07T09:31:28.548Z,44
2018-03-07T09:41:28.184Z,44
2018-03-07T09:51:27.686Z,46
2018-03-07T10:01:31.353Z,43
2018-03-07T10:11:31.133Z,42
2018-03-07T10:21:28.402Z,44
2018-03-07T10:31:29.181Z,43
2018-03-07T10:41:27.810Z,43
2018-03-07T10:51:28.555Z,45
2018-03-07T11:01:28.542Z,44
2018-03-07T11:11:28.639Z,43
2018-03-07T11:21:29.600Z,43
2018-03-07T11:31:29.819Z,42
2018-03-07T11:41:28.364Z,42
2018-03-07T11:51:28.396Z,44
2018-03-07T12:01:29.808Z,41
2018-03-07T12:11:28.726Z,43
2018-03-07T12:21:27.516Z,43
2018-03-07T12:31:28.281Z,43
2018-03-07T12:41:28.287Z,43
2018-03-07T12:51:28.232Z,43
2018-03-07T13:01:29.767Z,41
2018-03-07T13:11:28.379Z,41
2018-03-07T13:21:28.430Z,43
2018-03-07T13:31:28.206Z,42
2018-03-07T13:41:28.345Z,42
2018-03-07T13:51:27.844Z,42
2018-03-07T14:01:31.087Z,41
2018-03-07T14:11:28.624Z,42
2018-03-07T14:21:28.587Z,42
2018-03-07T14:31:28.145Z,43
2018-03-07T14:41:28.597Z,42
2018-03-07T14:51:28.290Z,43
2018-03-07T15:01:28.540Z,43
2018-03-07T15:11:28.175Z,43
2018-03-07T15:21:28.268Z,44
2018-03-07T15:31:29.003Z,43
2018-03-07T15:41:28.114Z,43
2018-03-07T15:51:28.271Z,44
2018-03-07T16:01:30.243Z,42
2018-03-07T16:11:28.956Z,43
2018-03-07T16:21:28.322Z,43
2018-03-07T16:31:28.516Z,43
2018-03-07T16:41:28.223Z,43
2018-03-07T16:51:27.770Z,44
2018-03-07T17:01:30.166Z,42
2018-03-07T17:11:29.307Z,42
2018-03-07T17:21:28.778Z,43
2018-03-07T17:31:30.171Z,42
2018-03-07T17:41:29.063Z,42
2018-03-07T17:51:27.807Z,44
2018-03-07T18:01:28.462Z,43
2018-03-07T18:11:28.506Z,44
2018-03-07T18:21:28.986Z,43
2018-03-07T18:31:27.570Z,43
2018-03-07T18:41:28.778Z,43
2018-03-07T18:51:30.127Z,42
2018-03-07T19:01:27.732Z,42
2018-03-07T19:11:29.476Z,43
2018-03-07T19:21:28.413Z,43
2018-03-07T19:31:28.050Z,44
2018-03-07T19:41:28.513Z,43
2018-03-07T19:51:29.532Z,42
2018-03-07T20:01:28.192Z,43
2018-03-07T20:11:30.598Z,43
2018-03-07T20:21:28.361Z,43
2018-03-07T20:31:28.102Z,45
2018-03-07T20:41:28.699Z,44
2018-03-07T20:51:28.405Z,44
2018-03-07T21:01:27.973Z,45
2018-03-07T21:11:27.949Z,45
2018-03-07T21:21:28.089Z,45
2018-03-07T21:31:29.244Z,43
2018-03-07T21:41:28.882Z,44
2018-03-07T21:51:28.856Z,45
2018-03-07T22:01:28.420Z,44
2018-03-07T22:11:28.313Z,45
2018-03-07T22:21:29.202Z,43
2018-03-07T22:31:27.883Z,43
2018-03-07T22:41:28.405Z,45
2018-03-07T22:51:28.864Z,44
2018-03-07T23:01:29.023Z,44
2018-03-07T23:11:28.747Z,44
2018-03-07T23:21:29.500Z,43
2018-03-07T23:31:28.717Z,43
2018-03-07T23:41:28.258Z,44
2018-03-07T23:51:28.352Z,43
